Time;durP1;ratioP1;P1;durP2;ratioP2;P2;SDS_P1;SDS_P2;PMS_P1;PMS_P2;Temp;Humidity;BMP_temperature;BMP_pressure;BME280_temperature;BME280_humidity;BME280_pressure;Samples;Min_cycle;Max_cycle;Signal;HPM_P1;HPM_P2
2022/08/08 00:01:55;;;;;;;1.88;0.95;;;19.00;54.60;21.10;94261.00;;;;10441295;28;45333;-62
2022/08/08 00:07:21;;;;;;;0.88;0.88;;;19.00;54.50;21.00;94248.00;;;;10440371;28;45209;-62
2022/08/08 00:13:07;;;;;;;1.60;0.80;;;19.00;54.40;21.00;94253.00;;;;10428441;28;45195;-63
2022/08/08 00:18:36;;;;;;;1.38;0.90;;;18.90;54.40;21.00;94263.00;;;;10440799;28;45168;-62
2022/08/08 00:24:00;;;;;;;1.00;0.90;;;18.90;54.30;21.00;94255.00;;;;10440878;28;45244;-63
2022/08/08 00:29:29;;;;;;;1.30;0.80;;;19.00;54.20;21.00;94250.00;;;;10439114;28;45485;-63
2022/08/08 00:35:14;;;;;;;1.23;0.80;;;18.90;54.10;21.00;94259.00;;;;10445585;28;45238;-62
2022/08/08 00:41:19;;;;;;;1.02;0.80;;;18.90;54.10;21.00;94260.00;;;;10429026;28;45453;-62
2022/08/08 00:47:21;;;;;;;0.82;0.82;;;18.90;54.10;20.90;94256.00;;;;10431255;28;45258;-62
2022/08/08 00:52:53;;;;;;;0.95;0.75;;;18.90;54.10;20.90;94253.00;;;;10437872;28;45212;-62
2022/08/08 00:59:29;;;;;;;0.90;0.80;;;18.90;54.10;21.00;94248.00;;;;10425527;28;45228;-63
2022/08/08 01:05:46;;;;;;;1.38;0.90;;;18.90;53.90;20.90;94252.00;;;;10342244;28;45352;-62
2022/08/08 01:12:03;;;;;;;1.03;0.90;;;18.90;53.90;20.90;94245.00;;;;10423235;28;45261;-62
2022/08/08 01:18:10;;;;;;;1.20;0.82;;;18.90;53.80;20.90;94244.00;;;;10438025;28;45280;-62
2022/08/08 01:24:14;;;;;;;1.52;0.70;;;18.90;53.70;20.90;94224.00;;;;10437249;28;45313;-63
2022/08/08 01:29:49;;;;;;;1.67;0.80;;;18.90;53.70;20.90;94234.00;;;;10430516;28;45280;-62
2022/08/08 01:36:04;;;;;;;1.00;0.73;;;18.80;53.50;20.90;94238.00;;;;10439534;28;45370;-62
2022/08/08 01:41:39;;;;;;;1.67;0.80;;;18.80;53.40;20.90;94234.00;;;;10424800;28;45428;-62
2022/08/08 01:47:15;;;;;;;0.98;0.80;;;18.80;53.10;20.90;94234.00;;;;10430981;28;45204;-62
2022/08/08 01:52:52;;;;;;;0.77;0.75;;;18.80;53.00;20.80;94232.00;;;;10431336;28;45133;-62
2022/08/08 01:58:34;;;;;;;0.93;0.77;;;18.80;52.80;20.80;94233.00;;;;10419314;28;45215;-63
2022/08/08 02:04:08;;;;;;;1.65;0.85;;;18.80;52.50;20.80;94239.00;;;;10431250;28;45360;-62
2022/08/08 02:09:50;;;;;;;1.13;0.70;;;18.80;52.30;20.80;94241.00;;;;10430261;28;45232;-62
2022/08/08 02:15:16;;;;;;;0.88;0.73;;;18.80;52.00;20.80;94232.00;;;;10430012;28;45257;-63
2022/08/08 02:22:30;;;;;;;0.73;0.60;;;18.80;51.80;20.80;94237.00;;;;10429673;28;45200;-62
2022/08/08 02:26:34;;;;;;;1.10;0.70;;;18.70;51.50;20.80;94237.00;;;;10430183;28;45192;-63
2022/08/08 02:32:12;;;;;;;1.27;0.80;;;18.80;51.50;20.80;94233.00;;;;10429352;28;45216;-63
2022/08/08 02:37:47;;;;;;;0.57;0.57;;;18.80;51.00;20.80;94227.00;;;;10438828;28;45127;-63
2022/08/08 02:43:43;;;;;;;1.27;0.70;;;18.70;51.00;20.70;94211.00;;;;10429396;28;45240;-62
2022/08/08 02:49:48;;;;;;;6.13;0.63;;;18.70;50.60;20.70;94214.00;;;;10429138;28;45221;-62
2022/08/08 02:56:02;;;;;;;0.70;0.60;;;18.70;50.40;20.70;94217.00;;;;10429409;28;45158;-62
2022/08/08 03:02:14;;;;;;;1.30;0.50;;;18.70;49.80;20.70;94214.00;;;;10417569;28;45309;-63
2022/08/08 03:08:20;;;;;;;1.27;0.63;;;18.70;49.50;20.70;94210.00;;;;10428011;28;45128;-62
2022/08/08 03:14:10;;;;;;;0.70;0.50;;;18.70;49.00;20.70;94233.00;;;;10428651;28;45240;-62
2022/08/08 03:20:02;;;;;;;1.38;0.50;;;18.70;48.90;20.70;94244.00;;;;10428535;28;45230;-62
2022/08/08 03:25:27;;;;;;;0.68;0.52;;;18.70;48.40;20.70;94242.00;;;;10428437;28;45257;-62
2022/08/08 03:30:48;;;;;;;0.57;0.55;;;18.70;48.40;20.70;94242.00;;;;10427311;28;45313;-63
2022/08/08 03:36:13;;;;;;;0.68;0.50;;;18.70;48.40;20.70;94248.00;;;;10438995;28;45272;-63
2022/08/08 03:41:36;;;;;;;1.02;0.63;;;18.70;48.50;20.70;94262.00;;;;10427704;28;45139;-62
2022/08/08 03:46:56;;;;;;;0.63;0.50;;;18.70;48.40;20.70;94256.00;;;;10427538;28;45150;-63
2022/08/08 03:52:16;;;;;;;0.88;0.50;;;18.70;48.70;20.70;94257.00;;;;10427544;28;45234;-62
2022/08/08 03:57:39;;;;;;;0.80;0.60;;;18.60;48.60;20.70;94259.00;;;;10426810;28;45344;-63
2022/08/08 04:03:02;;;;;;;0.70;0.60;;;18.70;48.70;20.70;94267.00;;;;10427773;28;45194;-62
2022/08/08 04:08:24;;;;;;;0.52;0.50;;;18.70;48.90;20.70;94271.00;;;;10427059;28;45206;-62
2022/08/08 04:13:46;;;;;;;0.50;0.50;;;18.60;48.70;20.70;94277.00;;;;10426873;28;45258;-63
2022/08/08 04:19:06;;;;;;;1.15;0.50;;;18.60;48.90;20.60;94285.00;;;;10426372;28;45217;-63
2022/08/08 04:24:28;;;;;;;1.75;0.57;;;18.60;48.70;20.60;94293.00;;;;10433762;28;45396;-63
2022/08/08 04:29:51;;;;;;;1.00;0.60;;;18.60;48.60;20.60;94292.00;;;;10433082;28;45199;-63
2022/08/08 04:35:11;;;;;;;1.05;0.60;;;18.50;48.60;20.60;94293.00;;;;10440818;28;45227;-62
2022/08/08 04:40:32;;;;;;;0.65;0.47;;;18.60;48.60;20.60;94286.00;;;;10436509;28;45249;-62
2022/08/08 04:45:54;;;;;;;0.57;0.57;;;18.60;48.50;20.60;94291.00;;;;10433255;28;45265;-62
2022/08/08 04:51:15;;;;;;;1.75;0.55;;;18.60;48.50;20.60;94313.00;;;;10432793;28;45206;-63
2022/08/08 04:56:35;;;;;;;1.13;0.60;;;18.50;48.50;20.60;94303.00;;;;10421371;28;45428;-62
2022/08/08 05:01:57;;;;;;;0.90;0.63;;;18.50;48.60;20.60;94311.00;;;;10433414;28;45164;-62
2022/08/08 05:07:18;;;;;;;0.70;0.60;;;18.60;48.80;20.60;94304.00;;;;10432495;28;45271;-62
2022/08/08 05:12:39;;;;;;;0.80;0.60;;;18.60;48.80;20.60;94298.00;;;;10432429;28;45254;-62
2022/08/08 05:18:01;;;;;;;1.30;0.70;;;18.60;48.90;20.50;94310.00;;;;10432642;28;45184;-61
2022/08/08 05:23:21;;;;;;;1.10;0.80;;;18.50;49.20;20.50;94308.00;;;;10432163;28;45223;-63
2022/08/08 05:28:42;;;;;;;0.90;0.80;;;18.60;49.60;20.50;94312.00;;;;10419122;28;45268;-63
2022/08/08 05:34:07;;;;;;;1.67;0.70;;;18.60;50.00;20.60;94320.00;;;;10430744;28;45292;-63
2022/08/08 05:39:29;;;;;;;1.70;0.75;;;18.50;50.30;20.60;94309.00;;;;10439042;28;45395;-63
2022/08/08 05:44:50;;;;;;;1.35;1.00;;;18.50;51.30;20.60;94315.00;;;;10431142;28;45177;-63
2022/08/08 05:50:12;;;;;;;0.77;0.70;;;18.60;51.10;20.60;94296.00;;;;10420370;28;45378;-63
2022/08/08 05:55:35;;;;;;;0.98;0.88;;;18.60;51.40;20.60;94322.00;;;;10431709;28;45325;-63
2022/08/08 06:00:57;;;;;;;1.55;0.88;;;18.60;51.60;20.60;94320.00;;;;10432673;28;45244;-64
2022/08/08 06:06:24;;;;;;;1.30;0.75;;;18.60;51.60;20.60;94335.00;;;;10432041;28;45231;-64
2022/08/08 06:11:44;;;;;;;1.10;1.00;;;18.60;51.60;20.60;94339.00;;;;10430890;28;45273;-64
2022/08/08 06:17:06;;;;;;;1.00;0.80;;;18.60;51.70;20.70;94340.00;;;;10431123;28;45295;-63
2022/08/08 06:22:28;;;;;;;1.25;0.70;;;18.70;51.80;20.70;94319.00;;;;10418109;28;45197;-63
2022/08/08 06:27:54;;;;;;;3.15;0.80;;;18.70;51.80;20.70;94342.00;;;;10428598;28;45278;-63
2022/08/08 06:33:16;;;;;;;2.05;0.80;;;18.70;51.80;20.70;94345.00;;;;10429839;28;45292;-63
2022/08/08 06:38:45;;;;;;;1.40;0.80;;;18.70;51.80;20.70;94342.00;;;;10438552;28;45292;-63
2022/08/08 06:44:11;;;;;;;0.70;0.70;;;18.70;51.80;20.80;94353.00;;;;10428692;28;45220;-63
2022/08/08 06:49:32;;;;;;;0.63;0.63;;;18.70;51.80;20.80;94346.00;;;;10429261;28;45271;-63
2022/08/08 06:54:57;;;;;;;1.00;0.70;;;18.70;52.00;20.80;94347.00;;;;10416160;28;45233;-63
2022/08/08 07:00:18;;;;;;;0.70;0.60;;;18.70;52.00;20.90;94349.00;;;;10428809;28;45134;-63
2022/08/08 07:05:41;;;;;;;0.70;0.60;;;18.70;52.10;20.90;94344.00;;;;10428624;28;45152;-63
2022/08/08 07:11:05;;;;;;;0.88;0.60;;;18.80;52.10;20.90;94342.00;;;;10415650;28;45190;-63
2022/08/08 07:16:37;;;;;;;1.45;0.70;;;18.80;52.30;21.00;94359.00;;;;10428323;28;45325;-63
2022/08/08 07:22:03;;;;;;;1.88;0.70;;;18.80;52.50;21.00;94358.00;;;;10428846;28;45201;-63
2022/08/08 07:27:27;;;;;;;0.83;0.80;;;18.90;52.50;21.00;94359.00;;;;10428125;28;45189;-63
2022/08/08 07:32:48;;;;;;;1.30;0.60;;;18.90;52.60;21.00;94371.00;;;;10429096;28;45180;-64
2022/08/08 07:38:10;;;;;;;1.25;0.75;;;18.90;52.60;21.10;94365.00;;;;10435212;28;45165;-63
2022/08/08 07:43:33;;;;;;;1.10;0.80;;;18.90;52.60;21.10;94359.00;;;;10414316;28;45395;-63
2022/08/08 07:48:54;;;;;;;1.38;0.80;;;18.90;52.60;21.10;94375.00;;;;10428000;28;45240;-63
2022/08/08 07:54:29;;;;;;;1.30;0.70;;;19.00;52.60;21.10;94367.00;;;;10427314;28;45273;-64
2022/08/08 07:59:59;;;;;;;2.20;0.80;;;19.00;52.60;21.10;94371.00;;;;10433696;28;45131;-63
2022/08/08 08:05:24;;;;;;;1.63;0.88;;;19.00;52.50;21.10;94361.00;;;;10434267;28;45230;-64
2022/08/08 08:10:46;;;;;;;1.42;0.65;;;19.00;52.40;21.10;94375.00;;;;10434500;28;45301;-63
2022/08/08 08:16:12;;;;;;;2.38;0.90;;;19.00;52.40;21.20;94371.00;;;;10433933;28;45149;-63
2022/08/08 08:21:39;;;;;;;1.98;0.70;;;19.00;52.40;21.10;94374.00;;;;10433581;28;45288;-64
2022/08/08 08:27:00;;;;;;;1.77;0.80;;;19.00;52.40;21.20;94376.00;;;;10431102;28;45188;-63
2022/08/08 08:32:22;;;;;;;0.88;0.80;;;19.00;52.30;21.20;94383.00;;;;10435221;28;45424;-63
2022/08/08 08:37:43;;;;;;;1.80;0.80;;;19.10;52.30;21.20;94380.00;;;;10438815;28;45296;-66
2022/08/08 08:43:05;;;;;;;1.40;0.93;;;19.10;52.10;21.20;94384.00;;;;10437935;28;45459;-67
2022/08/08 08:48:27;;;;;;;1.05;0.73;;;19.10;52.10;21.30;94384.00;;;;10475664;28;45302;-67
2022/08/08 08:53:52;;;;;;;1.73;0.88;;;19.10;52.20;21.30;94360.00;;;;10445982;28;45173;-66
2022/08/08 08:59:13;;;;;;;3.08;0.77;;;19.20;52.80;21.30;94381.00;;;;10435739;28;45534;-65
2022/08/08 09:04:37;;;;;;;1.65;0.90;;;19.20;52.80;21.40;94388.00;;;;10420008;28;45292;-66
2022/08/08 09:10:00;;;;;;;3.10;0.82;;;19.20;52.90;21.40;94382.00;;;;10429241;28;45512;-68
2022/08/08 09:15:21;;;;;;;2.28;0.90;;;19.30;53.10;21.50;94387.00;;;;10431239;28;45217;-67
2022/08/08 09:20:45;;;;;;;3.35;1.00;;;19.40;52.60;21.50;94388.00;;;;10415469;28;45357;-71
2022/08/08 09:26:14;;;;;;;1.00;0.88;;;19.50;54.00;21.60;94376.00;;;;10435431;28;45229;-64
2022/08/08 09:31:52;;;;;;;1.33;0.80;;;19.50;52.30;21.60;94373.00;;;;10423948;28;45384;-68
2022/08/08 09:37:18;;;;;;;2.88;0.80;;;19.60;52.30;21.60;94385.00;;;;10416536;28;45189;-64
2022/08/08 09:42:42;;;;;;;1.30;0.65;;;19.60;51.90;21.60;94383.00;;;;10435280;28;45199;-65
2022/08/08 09:48:04;;;;;;;0.85;0.70;;;19.60;51.70;21.60;94389.00;;;;10438120;28;45348;-67
2022/08/08 09:53:34;;;;;;;1.23;0.80;;;19.50;51.80;21.60;94376.00;;;;10444032;28;45331;-62
2022/08/08 09:59:01;;;;;;;1.38;0.80;;;19.60;52.00;21.70;94389.00;;;;10441544;28;45276;-64
2022/08/08 10:04:27;;;;;;;0.70;0.50;;;19.50;52.20;21.70;94378.00;;;;10430668;28;45208;-61
2022/08/08 10:09:52;;;;;;;0.35;0.35;;;19.60;52.20;21.50;94384.00;;;;10428914;28;45492;-61
2022/08/08 10:15:13;;;;;;;1.00;0.60;;;19.50;52.30;21.50;94391.00;;;;10428844;28;45311;-61
2022/08/08 10:20:44;;;;;;;0.70;0.50;;;19.50;52.30;21.50;94386.00;;;;10429514;28;45379;-61
2022/08/08 10:26:07;;;;;;;1.92;0.55;;;19.40;52.30;21.50;94392.00;;;;10429093;28;45237;-61
2022/08/08 10:37:11;;;;;;;0.52;0.40;;;19.40;52.30;21.50;94380.00;;;;10429743;28;45304;-61
2022/08/08 10:42:35;;;;;;;1.30;0.50;;;19.40;52.30;21.50;94386.00;;;;10447177;28;45489;-61
2022/08/08 10:47:58;;;;;;;2.40;0.57;;;19.40;52.30;21.50;94381.00;;;;10428684;28;45329;-60
2022/08/08 10:53:19;;;;;;;1.27;0.60;;;19.40;52.20;21.50;94389.00;;;;10428246;28;45209;-61
2022/08/08 10:58:41;;;;;;;1.17;0.50;;;19.40;52.20;21.50;94384.00;;;;10427025;28;45451;-62
2022/08/08 11:04:02;;;;;;;0.70;0.50;;;19.40;52.20;21.50;94386.00;;;;10426325;28;45365;-61
2022/08/08 11:09:23;;;;;;;0.65;0.40;;;19.40;52.30;21.60;94373.00;;;;10427400;28;45349;-62
2022/08/08 11:14:55;;;;;;;0.63;0.47;;;19.40;52.30;21.50;94360.00;;;;10429174;28;45155;-61
2022/08/08 11:20:18;;;;;;;0.65;0.50;;;19.40;52.10;21.50;94368.00;;;;10428843;28;45308;-62
2022/08/08 11:25:40;;;;;;;0.52;0.40;;;19.40;52.10;21.50;94355.00;;;;10428175;28;45337;-61
2022/08/08 11:31:04;;;;;;;0.90;0.50;;;19.40;52.10;21.60;94365.00;;;;10427547;28;45159;-62
2022/08/08 11:36:26;;;;;;;0.55;0.55;;;19.40;52.10;21.60;94366.00;;;;10424806;28;45308;-63
2022/08/08 11:41:49;;;;;;;0.95;0.50;;;19.40;52.10;21.60;94360.00;;;;10445982;28;45235;-61
2022/08/08 11:47:11;;;;;;;0.63;0.50;;;19.40;52.10;21.60;94359.00;;;;10426683;28;45226;-64
2022/08/08 11:52:33;;;;;;;0.85;0.65;;;19.40;52.10;21.60;94369.00;;;;10427153;28;45316;-62
2022/08/08 11:58:02;;;;;;;0.40;0.40;;;19.40;52.80;21.60;94356.00;;;;10425847;28;45452;-62
2022/08/08 12:03:27;;;;;;;0.40;0.40;;;19.40;52.20;21.60;94353.00;;;;10422878;28;45273;-60
2022/08/08 12:08:49;;;;;;;0.77;0.55;;;19.40;52.00;21.60;94353.00;;;;10434179;28;45181;-60
2022/08/08 12:14:10;;;;;;;0.55;0.40;;;19.50;52.10;21.60;94342.00;;;;10431637;28;45118;-60
2022/08/08 12:19:32;;;;;;;0.63;0.50;;;19.50;52.10;21.60;94351.00;;;;10431874;28;45133;-63
2022/08/08 12:24:53;;;;;;;0.65;0.47;;;19.50;52.10;21.60;94346.00;;;;10431322;28;45569;-62
2022/08/08 12:30:13;;;;;;;0.50;0.50;;;19.50;52.10;21.60;94355.00;;;;10431760;28;45233;-61
2022/08/08 12:35:40;;;;;;;0.85;0.65;;;19.50;52.10;21.60;94340.00;;;;10431458;28;45412;-61
2022/08/08 12:41:12;;;;;;;0.50;0.50;;;19.50;52.00;21.60;94348.00;;;;10442759;28;45132;-61
2022/08/08 12:46:33;;;;;;;0.63;0.50;;;19.50;52.20;21.60;94353.00;;;;10438091;28;45582;-61
2022/08/08 12:51:56;;;;;;;0.60;0.50;;;19.50;52.50;21.70;94350.00;;;;10438547;28;45448;-62
2022/08/08 12:57:21;;;;;;;0.50;0.50;;;19.50;51.90;21.70;94345.00;;;;10434427;28;45248;-61
2022/08/08 13:02:42;;;;;;;1.15;0.50;;;19.60;52.00;21.70;94343.00;;;;10431544;28;45419;-61
2022/08/08 13:08:15;;;;;;;0.40;0.30;;;19.50;51.80;21.70;94338.00;;;;10419649;28;45823;-62
2022/08/08 13:13:37;;;;;;;1.42;0.70;;;19.60;51.90;21.70;94356.00;;;;10439399;28;45257;-62
2022/08/08 13:18:58;;;;;;;0.50;0.50;;;19.70;51.80;21.70;94335.00;;;;10438370;28;45401;-62
2022/08/08 13:24:21;;;;;;;0.50;0.50;;;19.70;51.70;21.80;94342.00;;;;10435978;28;45448;-63
2022/08/08 13:29:51;;;;;;;1.40;0.50;;;19.70;52.00;21.70;94334.00;;;;10431644;28;45420;-63
2022/08/08 13:35:11;;;;;;;2.47;0.47;;;19.70;52.10;21.80;94345.00;;;;10445318;28;45278;-64
2022/08/08 13:40:34;;;;;;;0.60;0.43;;;19.80;52.00;21.80;94339.00;;;;10431597;28;45760;-61
2022/08/08 13:46:07;;;;;;;1.00;0.60;;;19.80;52.20;21.80;94333.00;;;;10446972;28;45235;-61
2022/08/08 13:51:28;;;;;;;0.77;0.60;;;19.80;52.00;21.80;94335.00;;;;10447047;28;45379;-62
2022/08/08 13:57:03;;;;;;;0.57;0.50;;;19.80;52.70;21.90;94312.00;;;;10438275;28;45436;-61
2022/08/08 14:02:26;;;;;;;0.40;0.40;;;19.80;52.00;21.90;94310.00;;;;10438547;28;45679;-62
2022/08/08 14:07:49;;;;;;;0.75;0.52;;;19.80;52.00;21.90;94319.00;;;;10424872;28;45307;-62
2022/08/08 14:13:16;;;;;;;0.55;0.50;;;19.90;52.00;21.90;94317.00;;;;10434707;28;45228;-60
2022/08/08 14:18:37;;;;;;;1.02;0.70;;;19.90;52.10;21.90;94312.00;;;;10432386;28;45130;-60
2022/08/08 14:23:58;;;;;;;0.70;0.50;;;19.90;52.10;21.90;94296.00;;;;10434939;28;45221;-59
2022/08/08 14:29:22;;;;;;;0.70;0.40;;;19.90;52.10;22.00;94305.00;;;;10434513;28;45192;-59
2022/08/08 14:34:43;;;;;;;0.50;0.45;;;19.90;52.00;22.00;94317.00;;;;10432698;28;45247;-59
2022/08/08 14:40:04;;;;;;;1.20;0.68;;;19.90;52.10;22.00;94307.00;;;;10425080;28;45243;-61
2022/08/08 14:45:29;;;;;;;1.35;0.32;;;19.90;52.00;22.00;94306.00;;;;10420081;28;45515;-61
2022/08/08 14:50:50;;;;;;;0.60;0.50;;;19.90;52.00;22.00;94312.00;;;;10422302;28;45387;-62
2022/08/08 14:56:10;;;;;;;1.08;0.55;;;19.90;51.90;22.00;94293.00;;;;10419866;28;45572;-61
2022/08/08 15:01:34;;;;;;;0.90;0.50;;;20.00;52.00;22.00;94297.00;;;;10420617;28;45295;-61
2022/08/08 15:06:55;;;;;;;1.02;0.60;;;19.90;52.00;22.10;94303.00;;;;10412497;28;45576;-61
2022/08/08 15:12:15;;;;;;;1.25;0.60;;;20.00;52.00;22.10;94281.00;;;;10422925;28;45548;-64
2022/08/08 15:17:38;;;;;;;1.73;0.70;;;20.00;52.00;22.10;94295.00;;;;10432358;28;45612;-60
2022/08/08 15:22:59;;;;;;;3.10;0.85;;;20.00;52.10;22.10;94292.00;;;;10438344;28;45284;-62
2022/08/08 15:28:19;;;;;;;3.55;1.00;;;20.00;52.10;22.10;94304.00;;;;10430578;28;45614;-61
2022/08/08 15:33:41;;;;;;;3.90;1.30;;;20.00;52.10;22.10;94300.00;;;;10439095;28;45343;-60
2022/08/08 15:39:02;;;;;;;3.60;1.10;;;20.00;52.00;22.10;94290.00;;;;10432632;28;45558;-60
2022/08/08 15:44:23;;;;;;;3.75;1.30;;;20.00;52.20;22.20;94285.00;;;;10442164;28;45225;-60
2022/08/08 15:49:45;;;;;;;2.92;1.20;;;20.00;52.20;22.20;94276.00;;;;10431430;28;45318;-60
2022/08/08 15:55:08;;;;;;;9.10;1.50;;;20.00;52.10;22.20;94283.00;;;;10432669;28;45296;-61
2022/08/08 16:00:28;;;;;;;2.65;0.90;;;20.10;52.10;22.20;94291.00;;;;10431413;28;45307;-62
2022/08/08 16:05:51;;;;;;;3.63;1.08;;;20.10;51.90;22.20;94294.00;;;;10427280;28;45508;-61
2022/08/08 16:11:11;;;;;;;2.95;1.02;;;20.10;51.60;22.20;94257.00;;;;10422396;28;45212;-60
2022/08/08 16:16:32;;;;;;;7.18;1.40;;;20.10;51.60;22.10;94297.00;;;;10433551;28;45289;-61
2022/08/08 16:21:54;;;;;;;3.92;1.25;;;20.00;51.70;22.20;94297.00;;;;10439637;28;45206;-60
2022/08/08 16:27:14;;;;;;;4.13;1.23;;;20.00;51.90;22.10;94302.00;;;;10427561;28;45333;-60
2022/08/08 16:32:35;;;;;;;4.30;1.40;;;20.00;52.00;22.10;94305.00;;;;10434048;28;45338;-61
2022/08/08 16:37:57;;;;;;;4.57;1.27;;;20.00;51.90;22.20;94300.00;;;;10431176;28;45452;-61
2022/08/08 16:43:18;;;;;;;5.07;1.40;;;20.10;52.10;22.20;94275.00;;;;10445864;28;45351;-61
2022/08/08 16:48:39;;;;;;;4.95;0.98;;;20.00;52.00;22.20;94294.00;;;;10433923;28;45407;-62
2022/08/08 16:54:01;;;;;;;4.15;1.40;;;20.10;52.10;22.20;94298.00;;;;10434276;28;45570;-62
2022/08/08 16:59:21;;;;;;;2.42;1.00;;;20.10;52.20;22.10;94306.00;;;;10436832;28;45243;-62
2022/08/08 17:04:42;;;;;;;3.45;1.10;;;20.10;52.30;22.10;94300.00;;;;10436642;28;45422;-61
2022/08/08 17:10:04;;;;;;;4.43;1.20;;;20.10;52.30;22.20;94309.00;;;;10434897;28;45184;-61
2022/08/08 17:15:25;;;;;;;2.50;1.00;;;20.10;52.30;22.20;94306.00;;;;10432949;28;45311;-61
2022/08/08 17:20:46;;;;;;;2.47;0.93;;;20.10;52.40;22.20;94312.00;;;;10421827;28;45166;-62
2022/08/08 17:26:07;;;;;;;4.45;1.00;;;20.10;52.50;22.20;94326.00;;;;10434089;28;45327;-62
2022/08/08 17:31:28;;;;;;;3.53;1.02;;;20.10;52.50;22.20;94317.00;;;;10434243;28;45276;-61
2022/08/08 17:36:49;;;;;;;4.07;1.02;;;20.10;52.50;22.20;94313.00;;;;10430161;28;45257;-62
2022/08/08 17:42:12;;;;;;;2.97;1.05;;;20.10;52.50;22.20;94325.00;;;;10443877;28;45313;-61
2022/08/08 17:47:34;;;;;;;1.95;0.68;;;20.10;52.70;22.20;94343.00;;;;10426141;28;45292;-61
2022/08/08 17:52:55;;;;;;;2.22;0.88;;;20.10;52.70;22.20;94337.00;;;;10428027;28;45243;-61
2022/08/08 17:58:17;;;;;;;3.28;0.88;;;20.10;52.70;22.20;94340.00;;;;10428136;28;45376;-61
2022/08/08 18:03:38;;;;;;;4.03;1.17;;;20.10;52.70;22.20;94342.00;;;;10425459;28;45576;-61
2022/08/08 18:09:00;;;;;;;2.15;1.00;;;20.00;52.80;22.20;94350.00;;;;10428850;28;45453;-61
2022/08/08 18:14:22;;;;;;;1.75;1.00;;;20.10;52.80;22.20;94349.00;;;;10417764;28;45284;-60
2022/08/08 18:19:44;;;;;;;2.00;0.88;;;20.00;52.70;22.20;94364.00;;;;10429234;28;45222;-61
2022/08/08 18:25:05;;;;;;;2.70;0.60;;;20.00;52.80;22.20;94351.00;;;;10429374;28;45219;-61
2022/08/08 18:30:27;;;;;;;1.65;0.82;;;20.00;52.80;22.20;94373.00;;;;10429336;28;45236;-61
2022/08/08 18:35:48;;;;;;;2.03;0.82;;;20.00;52.80;22.20;94363.00;;;;10429722;28;45475;-60
2022/08/08 18:41:08;;;;;;;2.97;0.80;;;20.00;52.80;22.20;94389.00;;;;10431631;28;45274;-61
2022/08/08 18:46:30;;;;;;;2.45;0.90;;;20.00;52.80;22.10;94392.00;;;;10429845;28;45469;-60
2022/08/08 18:51:51;;;;;;;2.20;0.85;;;20.00;52.80;22.10;94385.00;;;;10428468;28;45157;-60
2022/08/08 18:57:12;;;;;;;2.20;0.93;;;20.00;53.00;22.10;94405.00;;;;10428142;28;45367;-60
2022/08/08 19:02:34;;;;;;;2.63;0.88;;;20.00;52.90;22.10;94408.00;;;;10429423;28;45454;-61
2022/08/08 19:07:54;;;;;;;2.08;0.88;;;20.00;52.90;22.10;94416.00;;;;10427991;28;45279;-60
2022/08/08 19:13:15;;;;;;;2.00;0.93;;;20.00;52.90;22.10;94423.00;;;;10428094;28;45130;-61
2022/08/08 19:18:38;;;;;;;2.13;1.00;;;19.90;52.90;22.10;94421.00;;;;10435507;28;45237;-60
2022/08/08 19:23:59;;;;;;;1.38;1.00;;;19.90;52.80;22.10;94433.00;;;;10437088;28;45374;-61
2022/08/08 19:29:19;;;;;;;1.75;0.80;;;19.90;52.90;22.10;94429.00;;;;10426439;28;45271;-60
2022/08/08 19:34:41;;;;;;;1.83;0.80;;;19.90;52.90;22.10;94452.00;;;;10428302;28;45518;-60
2022/08/08 19:40:02;;;;;;;1.65;0.80;;;19.90;52.90;22.10;94444.00;;;;10428398;28;45225;-60
2022/08/08 19:45:23;;;;;;;1.42;0.70;;;19.90;53.00;22.10;94452.00;;;;10426593;28;45442;-60
2022/08/08 19:50:45;;;;;;;1.52;0.70;;;19.90;52.90;22.10;94459.00;;;;10426939;28;45161;-61
2022/08/08 19:56:08;;;;;;;0.82;0.65;;;19.90;52.90;22.00;94444.00;;;;10434607;28;45200;-63
2022/08/08 20:01:29;;;;;;;1.40;0.60;;;19.80;52.90;22.00;94458.00;;;;10434341;28;45276;-62
2022/08/08 20:06:51;;;;;;;1.77;0.82;;;19.80;52.90;22.00;94463.00;;;;10433363;28;45373;-61
2022/08/08 20:12:13;;;;;;;1.38;0.70;;;19.80;52.90;22.00;94467.00;;;;10430588;28;45372;-63
2022/08/08 20:17:33;;;;;;;1.50;0.80;;;19.80;52.90;22.00;94467.00;;;;10432287;28;45217;-60
2022/08/08 20:22:55;;;;;;;2.47;0.80;;;19.80;52.80;22.00;94456.00;;;;10448292;28;45330;-63
2022/08/08 20:28:16;;;;;;;1.10;0.73;;;19.80;52.80;22.00;94459.00;;;;10433678;28;45181;-62
2022/08/08 20:33:36;;;;;;;2.83;0.80;;;19.80;52.80;22.00;94464.00;;;;10433400;28;45112;-60
2022/08/08 20:38:58;;;;;;;0.98;0.63;;;19.80;52.70;22.00;94454.00;;;;10432383;28;45570;-60
2022/08/08 20:44:19;;;;;;;1.98;0.73;;;19.80;52.60;22.00;94449.00;;;;10433106;28;45403;-61
2022/08/08 20:49:39;;;;;;;1.00;0.63;;;19.80;52.60;22.00;94458.00;;;;10433462;28;45247;-60
2022/08/08 20:55:01;;;;;;;1.55;0.80;;;19.80;52.60;22.00;94450.00;;;;10433093;28;45176;-61
2022/08/08 21:00:23;;;;;;;0.98;0.75;;;19.80;52.50;22.00;94443.00;;;;10432830;28;45488;-61
2022/08/08 21:05:44;;;;;;;1.90;0.80;;;19.80;52.50;22.00;94446.00;;;;10432001;28;45129;-60
2022/08/08 21:11:06;;;;;;;1.42;0.82;;;19.80;52.40;22.00;94454.00;;;;10432396;28;45407;-60
2022/08/08 21:16:27;;;;;;;1.70;0.93;;;19.80;52.40;21.90;94457.00;;;;10432044;28;45197;-61
2022/08/08 21:21:55;;;;;;;1.70;0.75;;;19.80;52.30;21.90;94462.00;;;;10448875;28;45180;-60
2022/08/08 21:27:17;;;;;;;0.50;0.50;;;19.70;52.10;21.90;94467.00;;;;10431706;28;45545;-60
2022/08/08 21:32:37;;;;;;;1.35;0.75;;;19.80;52.10;21.90;94466.00;;;;10431627;28;45117;-61
2022/08/08 21:37:58;;;;;;;1.70;0.70;;;19.70;52.10;21.90;94428.00;;;;10428390;28;45468;-60
2022/08/08 21:43:20;;;;;;;0.70;0.50;;;19.70;52.00;21.90;94466.00;;;;10428323;28;45582;-60
2022/08/08 21:48:41;;;;;;;1.25;0.60;;;19.70;52.00;21.90;94443.00;;;;10431360;28;45488;-61
2022/08/08 21:54:02;;;;;;;0.70;0.60;;;19.70;52.00;21.90;94463.00;;;;10431084;28;45240;-61
2022/08/08 21:59:24;;;;;;;0.98;0.60;;;19.70;51.90;21.90;94456.00;;;;10429109;28;45226;-60
2022/08/08 22:04:44;;;;;;;1.38;0.70;;;19.70;51.90;21.90;94455.00;;;;10437334;28;45221;-60
2022/08/08 22:10:06;;;;;;;1.25;0.60;;;19.70;51.90;21.80;94438.00;;;;10431201;28;45522;-60
2022/08/08 22:15:29;;;;;;;1.15;0.63;;;19.70;52.00;21.90;94458.00;;;;10429717;28;45235;-60
2022/08/08 22:20:49;;;;;;;0.63;0.50;;;19.70;51.90;21.90;94453.00;;;;10430866;28;46064;-60
2022/08/08 22:26:10;;;;;;;1.00;0.70;;;19.70;51.80;21.80;94456.00;;;;10430467;28;45632;-61
2022/08/08 22:31:32;;;;;;;1.05;0.50;;;19.70;51.90;21.90;94438.00;;;;10429896;28;45276;-60
2022/08/08 22:36:52;;;;;;;1.42;0.73;;;19.70;51.90;21.90;94446.00;;;;10428541;28;45281;-60
2022/08/08 22:42:13;;;;;;;0.70;0.57;;;19.70;52.60;21.80;94436.00;;;;10429577;28;45362;-60
2022/08/08 22:47:36;;;;;;;1.55;0.70;;;19.70;51.80;21.80;94428.00;;;;10429391;28;45183;-60
2022/08/08 22:52:59;;;;;;;1.15;0.50;;;19.70;51.80;21.80;94432.00;;;;10429451;28;45145;-60
2022/08/08 22:58:19;;;;;;;1.17;0.70;;;19.70;51.80;21.80;94438.00;;;;10436807;28;45440;-60
2022/08/08 23:03:41;;;;;;;1.23;0.80;;;19.70;51.80;21.80;94426.00;;;;10423508;28;45189;-61
2022/08/08 23:09:01;;;;;;;1.00;0.70;;;19.70;51.90;21.80;94427.00;;;;10428962;28;45209;-60
2022/08/08 23:14:22;;;;;;;1.35;0.60;;;19.70;51.80;21.80;94434.00;;;;10428088;28;45257;-60
2022/08/08 23:19:44;;;;;;;0.73;0.60;;;19.70;51.80;21.80;94425.00;;;;10428734;28;45280;-61
2022/08/08 23:25:06;;;;;;;1.45;0.70;;;19.70;51.80;21.80;94415.00;;;;10427410;28;46115;-61
2022/08/08 23:30:27;;;;;;;0.98;0.60;;;19.60;51.80;21.80;94425.00;;;;10428560;28;45253;-60
2022/08/08 23:35:49;;;;;;;0.63;0.60;;;19.70;51.80;21.80;94404.00;;;;10428269;28;45083;-61
2022/08/08 23:41:09;;;;;;;1.02;0.70;;;19.70;51.90;21.80;94409.00;;;;10437730;28;45154;-60
2022/08/08 23:46:29;;;;;;;0.93;0.70;;;19.60;51.80;21.80;94417.00;;;;10427283;28;45413;-60
2022/08/08 23:51:53;;;;;;;0.77;0.70;;;19.60;51.90;21.80;94408.00;;;;10428102;28;45195;-60
2022/08/08 23:57:14;;;;;;;0.60;0.52;;;19.60;51.80;21.80;94418.00;;;;10426881;28;45244;-61
